Wetterdaten: Woche 17.01.11 - 23.01.11 (KW3)
Datum Zeit Temperatur Luftfeuchte Luftdruck Niederschlag Windrichtung Sonnenschein Solar Wind
17.01.2011 00:00 -1,5 C 95 % 1027,4 hPa 0,0 l/m N 0,00 h 0 W/m 1,9 km/h (1 Bft)
17.01.2011 01:00 -1,7 C 96 % 1027,4 hPa 0,0 l/m N 0,00 h 0 W/m 0,1 km/h (0 Bft)
17.01.2011 02:00 -1,9 C 96 % 1027,4 hPa 0,0 l/m N 0,00 h 0 W/m 1,1 km/h (0 Bft)
17.01.2011 03:00 -2,3 C 96 % 1027,5 hPa 0,0 l/m N 0,00 h 0 W/m 0,1 km/h (0 Bft)
17.01.2011 04:00 -2,5 C 97 % 1027,5 hPa 0,0 l/m N 0,00 h 0 W/m 0,1 km/h (0 Bft)
17.01.2011 05:00 -2,8 C 97 % 1027,3 hPa 0,0 l/m N 0,00 h 0 W/m 0,4 km/h (0 Bft)
17.01.2011 06:00 -2,9 C 97 % 1027,2 hPa 0,0 l/m N 0,00 h 0 W/m 0,0 km/h (0 Bft)
17.01.2011 07:00 -3,2 C 97 % 1027,0 hPa 0,0 l/m N 0,00 h 0 W/m 0,0 km/h (0 Bft)
17.01.2011 08:00 -3,5 C 97 % 1027,1 hPa 0,0 l/m N 0,00 h 14 W/m 0,0 km/h (0 Bft)
17.01.2011 09:00 -3,0 C 97 % 1026,8 hPa 0,0 l/m N 0,00 h 34 W/m 0,0 km/h (0 Bft)
17.01.2011 10:00 -1,2 C 98 % 1026,6 hPa 0,0 l/m N 0,00 h 45 W/m 0,0 km/h (0 Bft)
17.01.2011 11:00 2,9 C 96 % 1026,2 hPa 0,2 l/m N 0,42 h 185 W/m 0,9 km/h (0 Bft)
17.01.2011 12:00 5,7 C 88 % 1025,7 hPa 0,0 l/m NW 0,92 h 306 W/m 4,1 km/h (1 Bft)
17.01.2011 13:00 8,0 C 78 % 1025,4 hPa 0,0 l/m SW 1,00 h 341 W/m 7,2 km/h (2 Bft)
17.01.2011 14:00 7,0 C 80 % 1025,5 hPa 0,0 l/m SW 1,00 h 256 W/m 13,4 km/h (3 Bft)
17.01.2011 15:00 5,5 C 83 % 1025,8 hPa 0,0 l/m SW 0,08 h 65 W/m 13,0 km/h (3 Bft)
17.01.2011 16:00 4,1 C 87 % 1026,2 hPa 0,0 l/m S 0,00 h 15 W/m 10,2 km/h (2 Bft)
17.01.2011 17:00 2,7 C 91 % 1026,6 hPa 0,0 l/m S-SW 0,00 h 0 W/m 7,0 km/h (2 Bft)
17.01.2011 18:00 1,3 C 94 % 1027,2 hPa 0,0 l/m S 0,00 h 0 W/m 4,0 km/h (1 Bft)
17.01.2011 19:00 0,3 C 94 % 1027,5 hPa 0,0 l/m S-SW 0,00 h 0 W/m 4,0 km/h (1 Bft)
17.01.2011 20:00 -0,3 C 95 % 1027,6 hPa 0,0 l/m N 0,00 h 0 W/m 0,5 km/h (0 Bft)
17.01.2011 21:00 -0,4 C 96 % 1027,5 hPa 0,0 l/m N 0,00 h 0 W/m 2,4 km/h (1 Bft)
17.01.2011 22:00 0,1 C 97 % 1027,7 hPa 0,0 l/m S-SW 0,00 h 0 W/m 3,7 km/h (1 Bft)
17.01.2011 23:00 0,3 C 97 % 1027,9 hPa 0,0 l/m N 0,00 h 0 W/m 0,4 km/h (0 Bft)
18.01.2011 00:00 0,2 C 97 % 1027,8 hPa 0,0 l/m S-SW 0,00 h 0 W/m 1,9 km/h (1 Bft)
18.01.2011 01:00 0,2 C 97 % 1027,7 hPa 0,0 l/m N 0,00 h 0 W/m 0,5 km/h (0 Bft)
18.01.2011 02:00 0,5 C 97 % 1027,9 hPa 0,2 l/m N 0,00 h 0 W/m 0,1 km/h (0 Bft)
18.01.2011 03:00 0,7 C 97 % 1027,7 hPa 0,0 l/m N 0,00 h 0 W/m 0,5 km/h (0 Bft)
18.01.2011 04:00 0,5 C 97 % 1027,5 hPa 0,0 l/m N 0,00 h 0 W/m 1,7 km/h (1 Bft)
18.01.2011 05:00 0,6 C 98 % 1026,8 hPa 0,0 l/m S-SW 0,00 h 0 W/m 3,1 km/h (1 Bft)
18.01.2011 06:00 0,6 C 97 % 1026,7 hPa 0,0 l/m N 0,00 h 0 W/m 1,5 km/h (1 Bft)
18.01.2011 07:00 0,8 C 98 % 1026,8 hPa 0,0 l/m S-SW 0,00 h 0 W/m 1,3 km/h (1 Bft)
18.01.2011 08:00 1,1 C 98 % 1027,0 hPa 0,0 l/m N 0,00 h 9 W/m 0,9 km/h (0 Bft)
18.01.2011 09:00 1,4 C 98 % 1027,1 hPa 0,2 l/m S-SW 0,00 h 45 W/m 3,3 km/h (1 Bft)
18.01.2011 10:00 2,6 C 94 % 1027,1 hPa 0,0 l/m S-SW 0,00 h 84 W/m 11,4 km/h (2 Bft)
18.01.2011 11:00 3,5 C 93 % 1026,5 hPa 0,0 l/m S 0,17 h 143 W/m 10,3 km/h (2 Bft)
18.01.2011 12:00 5,0 C 91 % 1025,8 hPa 0,0 l/m S-SW 0,25 h 181 W/m 7,2 km/h (2 Bft)
18.01.2011 13:00 6,8 C 86 % 1025,0 hPa 0,0 l/m S 0,58 h 212 W/m 6,3 km/h (2 Bft)
18.01.2011 14:00 6,6 C 87 % 1024,4 hPa 0,0 l/m S-SW 0,00 h 95 W/m 8,7 km/h (2 Bft)
18.01.2011 15:00 6,8 C 88 % 1024,4 hPa 0,0 l/m SW 0,00 h 39 W/m 5,2 km/h (1 Bft)
18.01.2011 16:00 6,7 C 88 % 1024,7 hPa 0,0 l/m S-SW 0,00 h 16 W/m 2,9 km/h (1 Bft)
18.01.2011 17:00 5,7 C 88 % 1025,0 hPa 0,0 l/m S-SW 0,00 h 5 W/m 2,8 km/h (1 Bft)
18.01.2011 18:00 4,4 C 89 % 1025,2 hPa 0,0 l/m S 0,00 h 0 W/m 1,3 km/h (1 Bft)
18.01.2011 19:00 3,4 C 93 % 1025,2 hPa 0,0 l/m W-SW 0,00 h 0 W/m 3,6 km/h (1 Bft)
18.01.2011 20:00 4,0 C 91 % 1025,0 hPa 0,0 l/m W-NW 0,00 h 0 W/m 10,5 km/h (2 Bft)
18.01.2011 21:00 3,2 C 89 % 1025,0 hPa 0,0 l/m N 0,00 h 0 W/m 0,7 km/h (0 Bft)
18.01.2011 22:00 2,3 C 94 % 1025,2 hPa 0,0 l/m NO 0,00 h 0 W/m 3,1 km/h (1 Bft)
18.01.2011 23:00 2,2 C 95 % 1025,2 hPa 0,0 l/m W-SW 0,00 h 0 W/m 4,3 km/h (1 Bft)
19.01.2011 00:00 2,1 C 96 % 1025,3 hPa 0,0 l/m N 0,00 h 0 W/m 2,2 km/h (1 Bft)
19.01.2011 01:00 2,3 C 97 % 1025,3 hPa 0,0 l/m W 0,00 h 0 W/m 6,2 km/h (2 Bft)
19.01.2011 02:00 2,4 C 96 % 1025,3 hPa 0,0 l/m W 0,00 h 0 W/m 3,2 km/h (1 Bft)
19.01.2011 03:00 1,8 C 96 % 1025,0 hPa 0,0 l/m W 0,00 h 0 W/m 3,5 km/h (1 Bft)
19.01.2011 04:00 1,4 C 96 % 1024,9 hPa 0,0 l/m W-SW 0,00 h 0 W/m 2,0 km/h (1 Bft)
19.01.2011 05:00 1,1 C 96 % 1025,1 hPa 0,2 l/m N-NW 0,00 h 0 W/m 3,0 km/h (1 Bft)
19.01.2011 06:00 1,1 C 97 % 1025,6 hPa 1,4 l/m W-NW 0,00 h 0 W/m 8,4 km/h (2 Bft)
19.01.2011 07:00 1,1 C 97 % 1025,9 hPa 0,0 l/m N-NW 0,00 h 0 W/m 10,5 km/h (2 Bft)
19.01.2011 08:00 1,1 C 97 % 1026,3 hPa 0,0 l/m N-NW 0,00 h 8 W/m 8,8 km/h (2 Bft)
19.01.2011 09:00 1,1 C 96 % 1026,8 hPa 0,0 l/m N-NW 0,00 h 19 W/m 6,1 km/h (2 Bft)
19.01.2011 10:00 1,2 C 96 % 1027,2 hPa 0,0 l/m N-NW 0,00 h 31 W/m 4,7 km/h (1 Bft)
19.01.2011 11:00 1,3 C 96 % 1027,3 hPa 0,0 l/m N-NW 0,00 h 26 W/m 6,3 km/h (2 Bft)
19.01.2011 12:00 1,1 C 95 % 1027,3 hPa 0,2 l/m N-NW 0,00 h 78 W/m 10,6 km/h (2 Bft)
19.01.2011 13:00 1,5 C 91 % 1026,8 hPa 0,0 l/m N-NW 0,00 h 116 W/m 12,2 km/h (2 Bft)
19.01.2011 14:00 1,8 C 88 % 1026,7 hPa 0,0 l/m N-NW 0,58 h 213 W/m 16,0 km/h (3 Bft)
19.01.2011 15:00 1,1 C 85 % 1027,0 hPa 0,0 l/m NW 0,08 h 56 W/m 12,4 km/h (3 Bft)
19.01.2011 16:00 0,5 C 87 % 1027,2 hPa 0,0 l/m N-NO 0,00 h 19 W/m 7,4 km/h (2 Bft)
19.01.2011 17:00 -0,0 C 87 % 1027,4 hPa 0,0 l/m N 0,00 h 0 W/m 1,1 km/h (0 Bft)
19.01.2011 18:00 -0,8 C 90 % 1027,4 hPa 0,0 l/m N 0,00 h 0 W/m 3,3 km/h (1 Bft)
19.01.2011 19:00 -1,0 C 91 % 1027,4 hPa 0,0 l/m N-NW 0,00 h 0 W/m 4,4 km/h (1 Bft)
19.01.2011 20:00 -1,0 C 91 % 1027,2 hPa 0,0 l/m NW 0,00 h 0 W/m 4,5 km/h (1 Bft)
19.01.2011 21:00 -1,0 C 91 % 1027,2 hPa 0,0 l/m W-NW 0,00 h 0 W/m 4,7 km/h (1 Bft)
19.01.2011 22:00 -1,1 C 91 % 1026,9 hPa 0,0 l/m N 0,00 h 0 W/m 1,5 km/h (1 Bft)
19.01.2011 23:00 -1,4 C 92 % 1026,7 hPa 0,0 l/m N 0,00 h 0 W/m 1,3 km/h (1 Bft)
20.01.2011 00:00 -1,6 C 93 % 1026,4 hPa 0,0 l/m N 0,00 h 0 W/m 0,4 km/h (0 Bft)
20.01.2011 01:00 -1,8 C 93 % 1026,2 hPa 0,0 l/m N 0,00 h 0 W/m 0,0 km/h (0 Bft)
20.01.2011 02:00 -2,1 C 94 % 1025,7 hPa 0,0 l/m N 0,00 h 0 W/m 0,0 km/h (0 Bft)
20.01.2011 03:00 -2,2 C 94 % 1025,5 hPa 0,0 l/m N 0,00 h 0 W/m 0,0 km/h (0 Bft)
20.01.2011 04:00 -2,5 C 95 % 1025,1 hPa 0,0 l/m N 0,00 h 0 W/m 1,5 km/h (1 Bft)
20.01.2011 05:00 -2,4 C 96 % 1024,8 hPa 0,0 l/m W-SW 0,00 h 0 W/m 2,1 km/h (1 Bft)
20.01.2011 06:00 -2,1 C 96 % 1024,6 hPa 0,0 l/m W-SW 0,00 h 0 W/m 4,7 km/h (1 Bft)
20.01.2011 07:00 -2,0 C 96 % 1024,4 hPa 0,0 l/m W-SW 0,00 h 0 W/m 3,9 km/h (1 Bft)
20.01.2011 08:00 -1,9 C 97 % 1024,4 hPa 0,4 l/m N 0,00 h 12 W/m 1,5 km/h (1 Bft)
20.01.2011 09:00 -1,6 C 97 % 1024,6 hPa 0,0 l/m N 0,00 h 9 W/m 0,0 km/h (0 Bft)
20.01.2011 10:00 -1,3 C 97 % 1024,8 hPa 2,6 l/m N 0,00 h 13 W/m 0,0 km/h (0 Bft)
20.01.2011 11:00 -0,4 C 96 % 1024,9 hPa 2,2 l/m N-NO 0,00 h 39 W/m 1,9 km/h (1 Bft)
20.01.2011 12:00 -0,1 C 90 % 1024,7 hPa 0,8 l/m NO 0,00 h 71 W/m 9,3 km/h (2 Bft)
20.01.2011 13:00 -0,2 C 91 % 1024,6 hPa 0,0 l/m N-NO 0,00 h 63 W/m 5,7 km/h (1 Bft)
20.01.2011 14:00 -0,1 C 90 % 1024,6 hPa 0,0 l/m N-NO 0,00 h 62 W/m 6,8 km/h (2 Bft)
20.01.2011 15:00 -0,3 C 89 % 1024,8 hPa 0,0 l/m N-NO 0,00 h 45 W/m 12,4 km/h (3 Bft)
20.01.2011 16:00 -0,7 C 90 % 1024,8 hPa 0,0 l/m N-NO 0,00 h 23 W/m 10,6 km/h (2 Bft)
20.01.2011 17:00 -1,1 C 92 % 1024,9 hPa 0,0 l/m N-NO 0,00 h 0 W/m 6,3 km/h (2 Bft)
20.01.2011 18:00 -1,3 C 93 % 1025,3 hPa 0,0 l/m N-NO 0,00 h 0 W/m 9,5 km/h (2 Bft)
20.01.2011 19:00 -1,4 C 93 % 1025,7 hPa 0,0 l/m NO 0,00 h 0 W/m 13,7 km/h (3 Bft)
20.01.2011 20:00 -1,4 C 94 % 1025,9 hPa 0,2 l/m NO 0,00 h 0 W/m 13,0 km/h (3 Bft)
20.01.2011 21:00 -1,5 C 95 % 1026,4 hPa 0,0 l/m NO 0,00 h 0 W/m 12,6 km/h (3 Bft)
20.01.2011 22:00 -1,6 C 95 % 1026,7 hPa 0,6 l/m O-NO 0,00 h 0 W/m 14,9 km/h (3 Bft)
20.01.2011 23:00 -1,8 C 95 % 1027,2 hPa 1,0 l/m NO 0,00 h 0 W/m 15,2 km/h (3 Bft)
21.01.2011 00:00 -2,0 C 94 % 1027,5 hPa 0,2 l/m NO 0,00 h 0 W/m 12,0 km/h (2 Bft)
21.01.2011 01:00 -2,1 C 94 % 1027,7 hPa 0,2 l/m N-NO 0,00 h 0 W/m 10,5 km/h (2 Bft)
21.01.2011 02:00 -2,2 C 94 % 1027,9 hPa 0,0 l/m NO 0,00 h 0 W/m 10,3 km/h (2 Bft)
21.01.2011 03:00 -2,2 C 94 % 1027,9 hPa 0,0 l/m NO 0,00 h 0 W/m 15,6 km/h (3 Bft)
21.01.2011 04:00 -2,2 C 94 % 1028,1 hPa 0,0 l/m NO 0,00 h 0 W/m 15,6 km/h (3 Bft)
21.01.2011 05:00 -2,3 C 93 % 1028,4 hPa 0,0 l/m NO 0,00 h 0 W/m 14,5 km/h (3 Bft)
21.01.2011 06:00 -2,5 C 93 % 1028,6 hPa 0,0 l/m NO 0,00 h 0 W/m 17,3 km/h (3 Bft)
21.01.2011 07:00 -2,7 C 93 % 1029,1 hPa 0,2 l/m N-NO 0,00 h 0 W/m 16,1 km/h (3 Bft)
21.01.2011 08:00 -2,9 C 93 % 1029,4 hPa 0,0 l/m O-NO 0,00 h 11 W/m 18,0 km/h (3 Bft)
21.01.2011 09:00 -2,7 C 92 % 1029,9 hPa 0,0 l/m NO 0,00 h 30 W/m 13,1 km/h (3 Bft)
21.01.2011 10:00 -2,6 C 91 % 1030,2 hPa 0,0 l/m NO 0,00 h 41 W/m 16,0 km/h (3 Bft)
21.01.2011 11:00 -2,5 C 89 % 1030,2 hPa 0,0 l/m O-NO 0,00 h 63 W/m 15,8 km/h (3 Bft)
21.01.2011 12:00 -2,2 C 84 % 1030,1 hPa 0,0 l/m O-NO 0,00 h 89 W/m 21,6 km/h (4 Bft)
21.01.2011 13:00 -2,3 C 84 % 1029,8 hPa 0,0 l/m O-NO 0,00 h 76 W/m 15,8 km/h (3 Bft)
21.01.2011 14:00 -2,1 C 85 % 1029,5 hPa 0,0 l/m O-NO 0,00 h 53 W/m 12,4 km/h (3 Bft)
21.01.2011 15:00 -2,5 C 87 % 1029,5 hPa 0,0 l/m NO 0,00 h 28 W/m 14,5 km/h (3 Bft)
21.01.2011 16:00 -2,8 C 87 % 1029,6 hPa 0,0 l/m N-NO 0,00 h 14 W/m 14,0 km/h (3 Bft)
21.01.2011 17:00 -3,1 C 87 % 1029,8 hPa 0,0 l/m N-NO 0,00 h 0 W/m 12,1 km/h (2 Bft)
21.01.2011 18:00 -3,4 C 87 % 1030,0 hPa 0,0 l/m NO 0,00 h 0 W/m 10,1 km/h (2 Bft)
21.01.2011 19:00 -4,0 C 87 % 1030,3 hPa 0,0 l/m N-NO 0,00 h 0 W/m 7,5 km/h (2 Bft)
21.01.2011 20:00 -4,2 C 90 % 1030,6 hPa 0,0 l/m NO 0,00 h 0 W/m 10,3 km/h (2 Bft)
21.01.2011 21:00 -4,0 C 89 % 1030,6 hPa 0,0 l/m NO 0,00 h 0 W/m 12,9 km/h (3 Bft)
21.01.2011 22:00 -4,4 C 89 % 1030,6 hPa 0,0 l/m NO 0,00 h 0 W/m 15,8 km/h (3 Bft)
21.01.2011 23:00 -4,6 C 87 % 1030,7 hPa 0,0 l/m O-NO 0,00 h 0 W/m 11,3 km/h (2 Bft)
22.01.2011 00:00 -5,0 C 88 % 1030,5 hPa 0,0 l/m NO 0,00 h 0 W/m 9,9 km/h (2 Bft)
22.01.2011 01:00 -5,4 C 89 % 1030,3 hPa 0,0 l/m N-NO 0,00 h 0 W/m 7,2 km/h (2 Bft)
22.01.2011 02:00 -5,2 C 89 % 1030,2 hPa 0,0 l/m N-NO 0,00 h 0 W/m 10,9 km/h (2 Bft)
22.01.2011 03:00 -5,2 C 88 % 1030,1 hPa 0,0 l/m O-NO 0,00 h 0 W/m 13,6 km/h (3 Bft)
22.01.2011 04:00 -5,2 C 89 % 1029,8 hPa 0,0 l/m O-NO 0,00 h 0 W/m 10,8 km/h (2 Bft)
22.01.2011 05:00 -5,2 C 90 % 1029,5 hPa 0,0 l/m O-NO 0,00 h 0 W/m 10,1 km/h (2 Bft)
22.01.2011 06:00 -5,2 C 91 % 1029,2 hPa 0,0 l/m O-NO 0,00 h 0 W/m 10,2 km/h (2 Bft)
22.01.2011 07:00 -5,3 C 90 % 1029,1 hPa 0,0 l/m NO 0,00 h 0 W/m 10,9 km/h (2 Bft)
22.01.2011 08:00 -5,3 C 91 % 1029,1 hPa 0,0 l/m N-NO 0,00 h 19 W/m 11,0 km/h (2 Bft)
22.01.2011 09:00 -4,8 C 91 % 1029,2 hPa 0,0 l/m NO 0,00 h 78 W/m 11,4 km/h (2 Bft)
22.01.2011 10:00 -4,2 C 90 % 1029,1 hPa 0,0 l/m NO 0,00 h 115 W/m 11,8 km/h (2 Bft)
22.01.2011 11:00 -3,5 C 86 % 1028,7 hPa 0,0 l/m O 0,50 h 212 W/m 13,8 km/h (3 Bft)
22.01.2011 12:00 -3,4 C 83 % 1028,2 hPa 0,0 l/m O-NO 0,17 h 137 W/m 14,2 km/h (3 Bft)
22.01.2011 13:00 -3,4 C 80 % 1027,7 hPa 0,0 l/m O-NO 0,17 h 166 W/m 14,1 km/h (3 Bft)
22.01.2011 14:00 -3,2 C 73 % 1027,5 hPa 0,0 l/m NO 0,42 h 184 W/m 18,5 km/h (3 Bft)
22.01.2011 15:00 -3,3 C 73 % 1027,6 hPa 0,0 l/m O 0,00 h 65 W/m 14,4 km/h (3 Bft)
22.01.2011 16:00 -3,6 C 74 % 1027,5 hPa 0,0 l/m O-NO 0,00 h 19 W/m 14,9 km/h (3 Bft)
22.01.2011 17:00 -3,9 C 75 % 1027,6 hPa 0,0 l/m O-NO 0,00 h 0 W/m 12,3 km/h (3 Bft)
22.01.2011 18:00 -3,9 C 77 % 1027,5 hPa 0,0 l/m O 0,00 h 0 W/m 14,4 km/h (3 Bft)
22.01.2011 19:00 -4,0 C 76 % 1027,5 hPa 0,0 l/m O-NO 0,00 h 0 W/m 15,0 km/h (3 Bft)
22.01.2011 20:00 -4,1 C 75 % 1027,2 hPa 0,0 l/m O 0,00 h 0 W/m 17,2 km/h (3 Bft)
22.01.2011 21:00 -4,3 C 75 % 1027,2 hPa 0,0 l/m O 0,00 h 0 W/m 16,8 km/h (3 Bft)
22.01.2011 22:00 -4,3 C 77 % 1027,1 hPa 0,0 l/m O-SO 0,00 h 0 W/m 14,9 km/h (3 Bft)
22.01.2011 23:00 -4,4 C 77 % 1027,0 hPa 0,0 l/m O 0,00 h 0 W/m 17,6 km/h (3 Bft)
23.01.2011 00:00 -4,9 C 77 % 1026,7 hPa 0,0 l/m O-NO 0,00 h 0 W/m 13,0 km/h (3 Bft)
23.01.2011 01:00 -5,5 C 79 % 1026,7 hPa 0,0 l/m N-NO 0,00 h 0 W/m 7,8 km/h (2 Bft)
23.01.2011 02:00 -6,6 C 81 % 1026,4 hPa 0,0 l/m N-NO 0,00 h 0 W/m 4,1 km/h (1 Bft)
23.01.2011 03:00 -8,2 C 83 % 1026,3 hPa 0,0 l/m N 0,00 h 0 W/m 4,5 km/h (1 Bft)
23.01.2011 04:00 -9,3 C 87 % 1026,2 hPa 0,0 l/m N 0,00 h 0 W/m 4,3 km/h (1 Bft)
23.01.2011 05:00 -9,9 C 89 % 1026,2 hPa 0,0 l/m N-NO 0,00 h 0 W/m 3,9 km/h (1 Bft)
23.01.2011 06:00 -10,3 C 90 % 1026,3 hPa 0,0 l/m N 0,00 h 0 W/m 2,4 km/h (1 Bft)
23.01.2011 07:00 -10,6 C 90 % 1026,4 hPa 0,0 l/m N 0,00 h 0 W/m 1,2 km/h (1 Bft)
23.01.2011 08:00 -10,5 C 92 % 1026,8 hPa 0,0 l/m N 0,08 h 24 W/m 1,5 km/h (1 Bft)
23.01.2011 09:00 -9,4 C 94 % 1027,0 hPa 0,0 l/m N 0,00 h 65 W/m 1,5 km/h (1 Bft)
23.01.2011 10:00 -7,7 C 93 % 1027,0 hPa 0,0 l/m N-NO 0,00 h 68 W/m 2,9 km/h (1 Bft)
23.01.2011 11:00 -6,2 C 87 % 1027,0 hPa 0,0 l/m N-NO 0,25 h 153 W/m 4,3 km/h (1 Bft)
23.01.2011 12:00 -5,3 C 83 % 1026,6 hPa 0,0 l/m N-NO 0,42 h 226 W/m 5,1 km/h (1 Bft)
23.01.2011 13:00 -3,9 C 75 % 1026,2 hPa 0,0 l/m NO 1,00 h 373 W/m 8,3 km/h (2 Bft)
23.01.2011 14:00 -3,1 C 74 % 1025,9 hPa 0,0 l/m N-NO 1,00 h 279 W/m 9,1 km/h (2 Bft)
23.01.2011 15:00 -3,2 C 76 % 1025,8 hPa 0,0 l/m O 0,08 h 81 W/m 9,5 km/h (2 Bft)
23.01.2011 16:00 -3,7 C 78 % 1025,9 hPa 0,0 l/m O-SO 0,08 h 25 W/m 4,4 km/h (1 Bft)
23.01.2011 17:00 -5,5 C 83 % 1026,2 hPa 0,0 l/m N 0,00 h 5 W/m 0,7 km/h (0 Bft)
23.01.2011 18:00 -6,8 C 88 % 1026,2 hPa 0,0 l/m N 0,00 h 0 W/m 0,3 km/h (0 Bft)
23.01.2011 19:00 -7,0 C 89 % 1026,5 hPa 0,0 l/m N 0,00 h 0 W/m 0,1 km/h (0 Bft)
23.01.2011 20:00 -7,0 C 90 % 1026,4 hPa 0,0 l/m N 0,00 h 0 W/m 0,0 km/h (0 Bft)
23.01.2011 21:00 -7,9 C 89 % 1026,7 hPa 0,0 l/m N 0,00 h 0 W/m 0,1 km/h (0 Bft)
23.01.2011 22:00 -8,1 C 91 % 1026,7 hPa 0,0 l/m N 0,00 h 0 W/m 0,0 km/h (0 Bft)
23.01.2011 23:00 -8,2 C 91 % 1026,8 hPa 0,0 l/m N 0,00 h 0 W/m 0,7 km/h (0 Bft)
Min-Datum _ 23.01.11 22.01.11 18.01.11 - - - - 17.01.11
_ Min-Zeit 07:40 14:25 14:35 - - - - 00:40
Minimum _ -10,7 C 71 % 1024,2 hPa - - - - 0,0 km/h (0 Bft)
Max-Datum _ 17.01.11 23.01.11 21.01.11 20.01.11 - 17.01.11 22.01.11 21.01.11
_ Max-Zeit 13:45 10:35 23:55 10:25 - 11:30 12:00 12:45
Maximum _ 8,6 C 100 % 1030,9 hPa 2,6 l/m - 0,08 h 533 W/m 29,0 km/h
O-NO (5 Bft)
Durchschnitt _ -1,7 C 90 % 1027,0 hPa #10,8 l/m NO #9:15 h 88 W/m 7,1 km/h (2 Bft)